Time;durP1;ratioP1;P1;durP2;ratioP2;P2;SDS_P1;SDS_P2;PMS_P1;PMS_P2;Temp;Humidity;BMP_temperature;BMP_pressure;BME280_temperature;BME280_humidity;BME280_pressure;Samples;Min_cycle;Max_cycle;Signal;HPM_P1;HPM_P2
2022/05/01 00:02:11;;;;;;;14.32;12.02;;;;;;;9.40;78.84;102388.34;5097391;28;20035;-63
2022/05/01 00:04:37;;;;;;;16.60;12.40;;;;;;;9.35;79.41;102374.31;5097304;28;20028;-63
2022/05/01 00:07:03;;;;;;;16.90;11.93;;;;;;;9.34;79.34;102383.03;5097921;28;20381;-63
2022/05/01 00:09:29;;;;;;;15.48;12.07;;;;;;;9.32;79.57;102384.75;5097288;28;20032;-63
2022/05/01 00:11:54;;;;;;;17.98;11.90;;;;;;;9.41;79.63;102384.00;5096880;28;20347;-63
2022/05/01 00:14:19;;;;;;;15.00;12.50;;;;;;;9.40;79.19;102377.91;5097309;28;20043;-63
2022/05/01 00:16:45;;;;;;;17.77;12.23;;;;;;;9.39;80.02;102380.47;5097145;28;20071;-64
2022/05/01 00:19:11;;;;;;;16.48;12.85;;;;;;;9.46;80.04;102384.09;5101522;28;20031;-63
2022/05/01 00:21:37;;;;;;;18.85;12.48;;;;;;;9.47;79.92;102380.63;5116167;28;20112;-58
2022/05/01 00:24:06;;;;;;;16.10;12.52;;;;;;;9.48;79.84;102385.00;5117162;28;20046;-63
2022/05/01 00:26:32;;;;;;;14.80;12.32;;;;;;;9.50;80.08;102380.66;5117129;28;20055;-63
2022/05/01 00:28:58;;;;;;;19.33;13.82;;;;;;;9.47;79.80;102380.63;5117183;28;20028;-63
2022/05/01 00:31:23;;;;;;;17.33;12.55;;;;;;;9.46;80.17;102378.84;5117451;28;20312;-63
2022/05/01 00:36:32;;;;;;;18.17;12.60;;;;;;;9.43;80.55;102379.69;5108384;28;20054;-64
2022/05/01 00:39:05;;;;;;;17.98;13.25;;;;;;;9.45;80.18;102380.59;5107954;28;20106;-61
2022/05/01 00:41:36;;;;;;;17.45;12.57;;;;;;;9.26;80.20;102358.50;5096865;28;20062;-63
2022/05/01 00:44:04;;;;;;;17.27;12.88;;;;;;;9.31;80.05;102374.28;5096907;28;20063;-63
2022/05/01 00:46:32;;;;;;;16.60;13.48;;;;;;;9.28;80.29;102379.44;5096245;28;20114;-63
2022/05/01 00:49:00;;;;;;;18.95;12.68;;;;;;;9.26;80.04;102378.53;5096196;28;20028;-63
2022/05/01 00:51:31;;;;;;;15.13;12.23;;;;;;;9.29;80.25;102371.63;5096496;28;20024;-63
2022/05/01 00:53:57;;;;;;;18.10;13.18;;;;;;;9.19;79.89;102356.63;5096420;28;20046;-63
2022/05/01 00:56:24;;;;;;;17.23;12.57;;;;;;;9.27;79.87;102375.06;5093147;28;20036;-62
2022/05/01 00:58:50;;;;;;;16.70;11.98;;;;;;;9.26;80.20;102368.97;5096186;28;20085;-63
2022/05/01 01:01:16;;;;;;;21.27;12.57;;;;;;;9.24;80.23;102370.66;5096391;28;20032;-63
2022/05/01 01:03:41;;;;;;;19.52;13.85;;;;;;;9.18;80.74;102367.09;5095807;28;20040;-64
2022/05/01 01:06:06;;;;;;;17.98;12.75;;;;;;;9.23;80.60;102361.06;5096099;28;20031;-63
2022/05/01 01:08:32;;;;;;;19.15;13.02;;;;;;;9.27;80.78;102364.63;5095832;28;20423;-63
2022/05/01 01:10:58;;;;;;;18.02;12.70;;;;;;;9.29;80.75;102363.78;5096037;28;20028;-63
2022/05/01 01:13:27;;;;;;;17.30;12.63;;;;;;;9.25;80.59;102361.09;5095952;28;20028;-63
2022/05/01 01:15:53;;;;;;;19.98;13.80;;;;;;;9.23;80.78;102362.81;5095825;28;20028;-63
2022/05/01 01:18:19;;;;;;;17.67;12.80;;;;;;;9.20;80.60;102357.53;5095555;28;20454;-63
2022/05/01 01:20:44;;;;;;;20.75;13.38;;;;;;;9.18;81.32;102360.09;5095747;28;20036;-63
2022/05/01 01:23:09;;;;;;;16.48;12.75;;;;;;;9.22;81.24;102347.97;5095382;28;20375;-63
2022/05/01 01:25:35;;;;;;;16.65;12.35;;;;;;;9.26;81.07;102358.50;5095690;28;20052;-63
2022/05/01 01:28:02;;;;;;;17.25;12.65;;;;;;;9.26;80.87;102363.75;5095587;28;20042;-63
2022/05/01 01:33:14;;;;;;;17.88;12.63;;;;;;;9.25;81.58;102361.09;5095865;28;20065;-63
2022/05/01 01:35:40;;;;;;;16.35;12.98;;;;;;;9.26;80.50;102355.03;5095717;28;20060;-63
2022/05/01 01:38:06;;;;;;;18.08;12.80;;;;;;;9.14;82.02;102350.50;5095477;28;20039;-64
2022/05/01 01:40:48;;;;;;;18.00;12.80;;;;;;;9.17;81.53;102360.13;5095507;28;20024;-63
2022/05/01 01:43:18;;;;;;;17.50;13.37;;;;;;;9.20;81.85;102353.19;5095097;28;20490;-63
2022/05/01 01:45:43;;;;;;;18.02;13.52;;;;;;;9.16;81.75;102360.97;5095426;28;20355;-63
2022/05/01 01:48:16;;;;;;;18.95;13.10;;;;;;;9.17;81.39;102357.50;5095089;28;20040;-63
2022/05/01 01:50:44;;;;;;;18.15;13.88;;;;;;;9.21;81.57;102341.88;5095282;28;20027;-63
2022/05/01 01:53:11;;;;;;;18.13;13.65;;;;;;;9.19;81.53;102346.19;5095440;28;20348;-63
2022/05/01 01:55:38;;;;;;;16.85;13.75;;;;;;;9.17;80.93;102353.16;5094835;28;20096;-63
2022/05/01 01:58:05;;;;;;;17.80;14.15;;;;;;;9.16;81.65;102353.13;5095141;28;20038;-63
2022/05/01 02:00:30;;;;;;;17.98;14.20;;;;;;;9.15;81.24;102351.38;5095285;28;20413;-63
2022/05/01 02:02:59;;;;;;;18.15;13.75;;;;;;;9.16;81.96;102353.13;5095355;28;20041;-63
2022/05/01 02:05:25;;;;;;;20.90;14.13;;;;;;;9.13;81.88;102346.13;5095171;28;20089;-63
2022/05/01 02:07:51;;;;;;;18.20;13.95;;;;;;;9.15;81.62;102357.47;5094391;28;20459;-63
2022/05/01 02:10:17;;;;;;;18.50;13.55;;;;;;;9.15;81.78;102354.84;5094941;28;20070;-63
2022/05/01 02:12:42;;;;;;;19.23;13.48;;;;;;;9.12;82.25;102343.47;5094931;28;20040;-63
2022/05/01 02:15:07;;;;;;;19.95;14.05;;;;;;;9.13;82.14;102353.94;5095051;28;20111;-62
2022/05/01 02:17:33;;;;;;;23.10;14.88;;;;;;;9.07;82.26;102348.63;5094948;28;20020;-63
2022/05/01 02:19:59;;;;;;;20.25;14.20;;;;;;;9.06;82.36;102345.13;5095130;28;20058;-63
2022/05/01 02:22:24;;;;;;;19.58;14.57;;;;;;;9.04;81.95;102340.72;5094828;28;20082;-63
2022/05/01 02:24:49;;;;;;;22.45;15.68;;;;;;;9.07;82.41;102348.63;5095274;28;20032;-63
2022/05/01 02:27:15;;;;;;;20.02;14.50;;;;;;;9.04;82.63;102339.00;5094404;28;20060;-63
2022/05/01 02:29:42;;;;;;;21.38;14.48;;;;;;;8.93;82.64;102337.06;5095508;28;20024;-62
2022/05/01 02:32:07;;;;;;;18.90;14.27;;;;;;;8.91;82.67;102336.16;5095106;28;20112;-63
2022/05/01 02:34:32;;;;;;;20.17;15.55;;;;;;;8.82;83.09;102328.19;5091741;28;20074;-63
2022/05/01 02:36:58;;;;;;;23.00;14.18;;;;;;;8.81;83.64;102323.81;5095012;28;20032;-63
2022/05/01 02:39:24;;;;;;;21.25;14.60;;;;;;;8.89;83.98;102324.81;5094649;28;20081;-63
2022/05/01 02:41:50;;;;;;;21.20;14.52;;;;;;;8.87;83.67;102321.28;5094837;28;20028;-63
2022/05/01 02:44:15;;;;;;;21.35;14.98;;;;;;;8.93;83.56;102321.41;5095003;28;20168;-63
2022/05/01 02:46:41;;;;;;;22.67;15.02;;;;;;;8.93;83.47;102322.28;5094736;28;20120;-62
2022/05/01 02:49:06;;;;;;;20.00;14.55;;;;;;;8.91;83.29;102323.09;5094709;28;20450;-63
2022/05/01 02:51:36;;;;;;;18.38;13.95;;;;;;;8.87;83.53;102327.38;5094443;28;20032;-63
2022/05/01 02:54:04;;;;;;;21.63;15.32;;;;;;;8.84;83.75;102318.63;5094497;28;20036;-63
2022/05/01 02:56:32;;;;;;;23.27;15.90;;;;;;;8.87;83.92;102324.78;5094628;28;20536;-63
2022/05/01 02:58:57;;;;;;;20.30;15.02;;;;;;;8.79;83.75;102315.06;5095082;28;20097;-63
2022/05/01 03:01:23;;;;;;;21.30;15.13;;;;;;;8.86;83.81;102319.53;5098607;28;20036;-63
2022/05/01 03:03:49;;;;;;;19.73;14.43;;;;;;;8.80;84.21;102319.44;5098303;28;20455;-63
2022/05/01 03:06:15;;;;;;;20.98;15.38;;;;;;;8.76;84.42;102317.63;5098435;28;20028;-63
2022/05/01 03:08:40;;;;;;;21.02;14.93;;;;;;;8.72;84.65;102312.34;5098263;28;20056;-62
2022/05/01 03:11:05;;;;;;;20.77;14.68;;;;;;;8.71;83.85;102309.69;5098320;28;20351;-63
2022/05/01 03:13:30;;;;;;;22.30;14.85;;;;;;;8.72;84.54;102316.69;5098419;28;20347;-63
2022/05/01 03:15:56;;;;;;;20.67;15.38;;;;;;;8.65;84.32;102310.50;5098382;28;20402;-63
2022/05/01 03:23:50;;;;;;;21.73;16.08;;;;;;;8.49;84.66;102310.16;5098069;28;20043;-62
2022/05/01 03:26:18;;;;;;;21.40;15.27;;;;;;;8.49;85.40;102313.63;5097903;28;20051;-63
2022/05/01 03:28:45;;;;;;;23.67;16.13;;;;;;;8.45;85.25;102304.03;5097589;28;20038;-63
2022/05/01 03:31:12;;;;;;;20.00;15.70;;;;;;;8.43;85.06;102305.72;5097911;28;20050;-64
2022/05/01 03:33:38;;;;;;;23.75;16.80;;;;;;;8.46;85.58;102304.91;5097471;28;20035;-63
2022/05/01 03:36:06;;;;;;;22.23;15.55;;;;;;;8.41;85.05;102296.97;5097796;28;20066;-63
2022/05/01 03:38:32;;;;;;;20.35;15.90;;;;;;;8.38;85.76;102296.91;5097934;28;20032;-63
2022/05/01 03:40:58;;;;;;;23.42;16.02;;;;;;;8.40;85.53;102297.84;5098010;28;20063;-63
2022/05/01 03:43:23;;;;;;;20.38;16.42;;;;;;;8.38;85.48;102303.00;5097932;28;20047;-63
2022/05/01 03:45:48;;;;;;;21.65;16.20;;;;;;;8.33;85.93;102296.81;5097627;28;20040;-63
2022/05/01 03:48:13;;;;;;;23.17;16.45;;;;;;;8.24;86.26;102291.41;5097764;28;20119;-63
2022/05/01 03:50:39;;;;;;;20.55;16.17;;;;;;;8.23;86.13;102300.09;5097584;28;20105;-63
2022/05/01 03:53:06;;;;;;;23.60;16.40;;;;;;;8.19;86.50;102303.47;5097603;28;20070;-62
2022/05/01 03:55:33;;;;;;;20.65;16.25;;;;;;;8.20;86.51;102296.53;5097613;28;20028;-63
2022/05/01 03:57:59;;;;;;;25.15;16.58;;;;;;;8.12;86.28;102303.34;5097571;28;20040;-62
2022/05/01 04:00:24;;;;;;;25.55;16.60;;;;;;;8.09;87.06;102295.44;5097366;28;20032;-63
2022/05/01 04:02:50;;;;;;;21.55;15.95;;;;;;;8.07;86.85;102297.16;5097380;28;20093;-63
2022/05/01 04:05:15;;;;;;;21.40;17.08;;;;;;;8.00;86.79;102293.53;5097668;28;20023;-63
2022/05/01 04:07:41;;;;;;;22.85;16.98;;;;;;;7.96;86.93;102300.44;5097283;28;20028;-62
2022/05/01 04:10:08;;;;;;;24.58;17.13;;;;;;;7.87;87.46;102296.72;5097109;28;20070;-63
2022/05/01 04:12:37;;;;;;;23.27;18.33;;;;;;;7.86;87.69;102303.66;5097305;28;20325;-62
2022/05/01 04:15:03;;;;;;;23.17;17.98;;;;;;;7.87;87.79;102300.22;5097141;28;20351;-62
2022/05/01 04:17:29;;;;;;;27.38;18.35;;;;;;;7.86;88.04;102303.66;5097501;28;20024;-62
2022/05/01 04:19:54;;;;;;;23.85;17.88;;;;;;;7.85;88.05;102301.03;5096873;28;20024;-63
2022/05/01 04:22:20;;;;;;;23.98;17.88;;;;;;;7.76;88.27;102300.84;5096728;28;20028;-62
2022/05/01 04:24:46;;;;;;;23.05;18.00;;;;;;;7.78;88.31;102294.81;5097183;28;20447;-63
2022/05/01 04:27:11;;;;;;;24.95;18.40;;;;;;;7.74;88.32;102297.31;5097381;28;20044;-62
2022/05/01 04:29:36;;;;;;;24.50;18.52;;;;;;;7.75;88.53;102297.38;5096809;28;20036;-62
2022/05/01 04:32:06;;;;;;;24.10;18.10;;;;;;;7.70;88.48;102309.41;5096618;28;20032;-62
2022/05/01 04:34:32;;;;;;;29.80;19.52;;;;;;;7.73;88.31;102304.25;5096663;28;20101;-62
2022/05/01 04:36:58;;;;;;;27.30;20.90;;;;;;;7.65;88.30;102303.19;5096765;28;20420;-63
2022/05/01 04:39:24;;;;;;;25.77;19.20;;;;;;;7.63;88.81;102297.06;5096873;28;20032;-62
2022/05/01 04:41:49;;;;;;;26.85;19.55;;;;;;;7.62;88.91;102300.53;5096654;28;20399;-62
2022/05/01 04:44:14;;;;;;;26.92;19.35;;;;;;;7.67;88.69;102304.13;5096513;28;20023;-62
2022/05/01 04:46:40;;;;;;;29.33;20.45;;;;;;;7.63;89.13;102308.38;5096293;28;20354;-62
2022/05/01 04:49:05;;;;;;;26.90;19.63;;;;;;;7.66;88.83;102291.94;5096447;28;20028;-62
2022/05/01 04:51:30;;;;;;;28.83;20.52;;;;;;;7.73;89.03;102306.00;5096480;28;20109;-62
2022/05/01 04:53:55;;;;;;;27.98;20.48;;;;;;;7.76;88.66;102308.66;5096641;28;20113;-62
2022/05/01 04:59:07;;;;;;;33.00;22.00;;;;;;;7.88;87.97;102315.00;5097035;28;20089;-62
2022/05/01 05:01:33;;;;;;;30.00;21.52;;;;;;;7.88;88.08;102307.19;5095751;28;20455;-62
2022/05/01 05:04:00;;;;;;;32.25;21.77;;;;;;;7.84;88.48;102312.31;5096192;28;20032;-62
2022/05/01 05:06:25;;;;;;;31.48;21.15;;;;;;;7.72;88.82;102307.72;5095891;28;20031;-62
2022/05/01 05:11:34;;;;;;;32.72;22.52;;;;;;;7.74;88.93;102306.03;5095902;28;20055;-62
2022/05/01 05:14:00;;;;;;;30.83;22.60;;;;;;;7.81;89.20;102310.50;5095923;28;20036;-62
2022/05/01 05:16:25;;;;;;;31.35;22.42;;;;;;;7.86;89.00;102310.59;5095770;28;20028;-63
2022/05/01 05:18:50;;;;;;;33.92;23.48;;;;;;;7.85;89.21;102314.94;5095857;28;20453;-62
2022/05/01 05:21:15;;;;;;;32.72;23.40;;;;;;;7.84;88.77;102312.31;5095644;28;20039;-62
2022/05/01 05:23:41;;;;;;;31.55;22.75;;;;;;;7.83;88.74;102315.75;5095832;28;20036;-62
2022/05/01 05:26:06;;;;;;;35.00;23.60;;;;;;;7.83;88.66;102318.34;5095305;28;20048;-56
2022/05/01 05:28:32;;;;;;;34.13;23.63;;;;;;;7.79;88.74;102317.44;5096081;28;20032;-61
2022/05/01 05:30:57;;;;;;;33.97;24.20;;;;;;;7.78;89.37;102326.09;5096116;28;20158;-62
2022/05/01 05:33:23;;;;;;;32.80;23.60;;;;;;;7.56;89.44;102303.00;5095733;28;20116;-62
2022/05/01 05:35:48;;;;;;;35.70;24.90;;;;;;;7.67;90.01;102333.66;5095667;28;20027;-63
2022/05/01 05:38:14;;;;;;;33.97;25.45;;;;;;;7.75;89.60;102332.97;5095783;28;20107;-62
2022/05/01 05:40:39;;;;;;;34.75;24.58;;;;;;;7.72;89.88;102328.56;5095250;28;20035;-61
2022/05/01 05:43:05;;;;;;;37.85;25.02;;;;;;;7.81;89.54;102328.75;5095414;28;20024;-61
2022/05/01 05:45:30;;;;;;;37.85;25.00;;;;;;;7.80;89.68;102334.81;5092244;28;20351;-61
2022/05/01 05:47:55;;;;;;;34.85;25.15;;;;;;;7.88;90.20;102327.16;5095398;28;20031;-61
2022/05/01 05:50:21;;;;;;;39.13;24.83;;;;;;;7.88;89.30;102335.84;5095371;28;20371;-62
2022/05/01 05:52:46;;;;;;;35.60;24.35;;;;;;;8.00;90.13;102337.84;5095300;28;20032;-62
2022/05/01 05:55:12;;;;;;;33.42;23.58;;;;;;;8.18;89.23;102334.72;5095388;28;20036;-62
2022/05/01 05:57:37;;;;;;;36.50;23.95;;;;;;;8.29;88.36;102336.72;5095095;28;20039;-61
2022/05/01 06:00:04;;;;;;;32.47;23.48;;;;;;;8.35;88.21;102335.97;5095086;28;20024;-62
2022/05/01 06:02:29;;;;;;;33.05;23.35;;;;;;;8.43;88.00;102346.56;5095029;28;20043;-61
2022/05/01 06:04:55;;;;;;;34.67;23.98;;;;;;;8.54;87.23;102337.22;5095046;28;20036;-62
2022/05/01 06:07:20;;;;;;;31.42;22.10;;;;;;;8.58;86.59;102332.09;5095493;28;20030;-61
2022/05/01 06:09:45;;;;;;;32.58;23.77;;;;;;;8.58;87.05;102337.31;5091328;28;20044;-61
2022/05/01 06:12:10;;;;;;;31.98;23.70;;;;;;;8.66;86.12;102337.44;5094698;28;20031;-62
2022/05/01 06:14:36;;;;;;;32.72;22.98;;;;;;;8.62;86.63;102336.53;5095267;28;20036;-61
2022/05/01 06:17:01;;;;;;;30.73;22.85;;;;;;;8.68;86.24;102341.84;5094950;28;20052;-62
2022/05/01 06:19:26;;;;;;;30.50;22.13;;;;;;;8.70;86.12;102342.75;5095175;28;20192;-62
2022/05/01 06:21:52;;;;;;;35.45;23.65;;;;;;;8.71;86.59;102335.78;5094989;28;20032;-62
2022/05/01 06:24:17;;;;;;;32.05;22.83;;;;;;;8.75;86.48;102327.19;5094954;28;20034;-63
2022/05/01 06:26:42;;;;;;;33.70;23.45;;;;;;;8.93;85.97;102342.28;5094897;28;20463;-61
2022/05/01 06:29:08;;;;;;;32.58;23.27;;;;;;;8.98;86.13;102344.13;5094874;28;20039;-61
2022/05/01 06:31:34;;;;;;;30.02;23.38;;;;;;;9.05;85.91;102343.38;5094762;28;20028;-61
2022/05/01 06:33:59;;;;;;;33.25;22.40;;;;;;;9.20;85.18;102345.34;5095732;28;20032;-61
2022/05/01 06:36:24;;;;;;;28.95;22.00;;;;;;;9.20;84.39;102345.34;5099082;28;20461;-62
2022/05/01 06:38:50;;;;;;;28.83;20.77;;;;;;;9.23;84.24;102344.53;5098894;28;20020;-62
2022/05/01 06:41:15;;;;;;;30.95;21.70;;;;;;;9.37;84.15;102343.00;5098825;28;20060;-62
2022/05/01 06:43:40;;;;;;;29.02;20.85;;;;;;;9.55;83.29;102345.00;5098745;28;20034;-63
2022/05/01 06:46:06;;;;;;;28.42;20.33;;;;;;;9.70;82.98;102347.84;5098729;28;20074;-63
2022/05/01 06:48:31;;;;;;;30.58;21.52;;;;;;;9.92;82.16;102347.28;5098799;28;20027;-62
2022/05/01 06:50:57;;;;;;;29.73;21.52;;;;;;;10.02;81.27;102354.41;5098843;28;20067;-56
2022/05/01 06:53:22;;;;;;;26.08;19.95;;;;;;;10.19;80.75;102343.31;5098653;28;20059;-62
2022/05/01 06:55:48;;;;;;;27.20;19.45;;;;;;;10.68;79.27;102350.84;5098573;28;20528;-63
2022/05/01 06:58:13;;;;;;;27.55;20.13;;;;;;;11.37;76.43;102346.22;5098476;28;20028;-63
2022/05/01 07:00:38;;;;;;;26.48;19.10;;;;;;;11.37;74.55;102347.09;5098576;28;20036;-63
2022/05/01 07:03:04;;;;;;;28.27;19.00;;;;;;;11.23;74.89;102350.50;5098538;28;20027;-63
2022/05/01 07:05:29;;;;;;;27.85;20.55;;;;;;;11.20;74.69;102351.34;5096847;28;20081;-63
2022/05/01 07:07:54;;;;;;;30.27;19.70;;;;;;;11.03;75.09;102350.31;5096997;28;20056;-63
2022/05/01 07:10:21;;;;;;;29.27;20.02;;;;;;;11.01;75.14;102352.03;5096609;28;20020;-63
2022/05/01 07:12:46;;;;;;;26.75;19.60;;;;;;;10.96;76.01;102351.09;5096611;28;20039;-63
2022/05/01 07:15:12;;;;;;;29.70;19.95;;;;;;;10.98;74.78;102360.75;5096703;28;20032;-63
2022/05/01 07:17:38;;;;;;;27.55;19.52;;;;;;;11.00;75.12;102356.41;5096772;28;20447;-63
2022/05/01 07:20:04;;;;;;;25.67;18.27;;;;;;;10.97;74.92;102358.09;5096657;28;20118;-63
2022/05/01 07:22:30;;;;;;;25.48;17.58;;;;;;;11.07;74.46;102359.97;5096769;28;20047;-63
2022/05/01 07:24:56;;;;;;;23.92;18.70;;;;;;;10.91;74.03;102363.31;5096496;28;20036;-63
2022/05/01 07:27:21;;;;;;;25.77;18.30;;;;;;;10.84;75.16;102354.50;5096409;28;20048;-63
2022/05/01 07:29:47;;;;;;;26.52;18.92;;;;;;;10.86;74.58;102355.41;5096473;28;20024;-63
2022/05/01 07:32:12;;;;;;;25.95;18.88;;;;;;;10.91;74.70;102361.53;5095675;28;20362;-63
2022/05/01 07:34:37;;;;;;;25.60;18.65;;;;;;;10.84;74.54;102358.88;5096497;28;20032;-63
2022/05/01 07:37:04;;;;;;;25.67;17.95;;;;;;;10.91;74.37;102363.31;5096060;28;20024;-64
2022/05/01 07:39:29;;;;;;;24.52;17.30;;;;;;;10.91;74.33;102361.53;5095980;28;20024;-62
2022/05/01 07:41:55;;;;;;;23.48;17.63;;;;;;;11.02;73.38;102359.03;5096162;28;20047;-63
2022/05/01 07:44:20;;;;;;;23.23;16.83;;;;;;;11.15;73.42;102353.03;5096274;28;20047;-63
2022/05/01 07:46:46;;;;;;;19.73;14.85;;;;;;;11.29;72.58;102356.63;5097457;28;20078;-63
2022/05/01 07:49:11;;;;;;;19.77;14.30;;;;;;;11.47;70.99;102348.91;5097608;28;20032;-63
2022/05/01 07:51:37;;;;;;;21.75;14.43;;;;;;;11.54;70.46;102357.72;5097832;28;20081;-63
2022/05/01 07:54:04;;;;;;;20.80;14.68;;;;;;;11.63;70.49;102360.38;5097626;28;20028;-64
2022/05/01 07:56:30;;;;;;;21.70;14.73;;;;;;;11.62;69.43;102361.25;5097744;28;20119;-63
2022/05/01 07:58:56;;;;;;;18.00;13.25;;;;;;;11.65;70.10;102353.41;5097776;28;20039;-65
2022/05/01 08:01:21;;;;;;;21.65;14.02;;;;;;;11.66;69.75;102351.66;5097459;28;20028;-62
2022/05/01 08:06:31;;;;;;;20.13;12.35;;;;;;;11.50;67.78;102340.19;5097072;28;20038;-63
2022/05/01 08:08:56;;;;;;;17.73;12.35;;;;;;;11.45;68.99;102340.16;5097158;28;20032;-62
2022/05/01 08:11:22;;;;;;;16.48;11.57;;;;;;;11.53;69.25;102355.94;5097628;28;20023;-62
2022/05/01 08:13:47;;;;;;;16.55;12.57;;;;;;;11.51;68.54;102345.44;5097018;28;20032;-63
2022/05/01 08:16:13;;;;;;;17.63;12.77;;;;;;;11.47;67.18;102345.41;5097136;28;20028;-64
2022/05/01 08:21:23;;;;;;;16.35;11.88;;;;;;;11.46;66.43;102346.28;5097315;28;20055;-62
2022/05/01 08:23:49;;;;;;;15.27;10.68;;;;;;;11.37;65.94;102341.88;5097464;28;20042;-62
2022/05/01 08:26:17;;;;;;;15.48;10.93;;;;;;;11.29;65.92;102348.78;5096594;28;20052;-62
2022/05/01 08:28:43;;;;;;;16.65;11.63;;;;;;;11.27;67.09;102337.41;5096253;28;20347;-63
2022/05/01 08:31:09;;;;;;;16.27;10.90;;;;;;;11.33;66.33;102345.31;5109554;27;20114;-63
2022/05/01 08:33:36;;;;;;;14.98;9.35;;;;;;;11.38;64.59;102333.13;5097783;27;20031;-63
2022/05/01 08:36:04;;;;;;;10.80;8.20;;;;;;;11.48;62.80;102344.53;5108270;28;20041;-63
2022/05/01 08:38:30;;;;;;;11.32;9.05;;;;;;;11.47;62.56;102341.03;5131563;27;20031;-62
2022/05/01 08:40:55;;;;;;;12.00;8.82;;;;;;;11.47;62.79;102340.16;5120044;27;20038;-63
2022/05/01 08:43:23;;;;;;;16.83;10.48;;;;;;;11.57;62.99;102343.75;5132401;27;20045;-62
2022/05/01 08:46:19;;;;;;;14.27;9.55;;;;;;;11.59;63.51;102339.41;5125716;27;20098;-64
2022/05/01 08:49:04;;;;;;;10.20;8.30;;;;;;;11.70;61.92;102332.47;5120200;27;20023;-63
2022/05/01 08:51:32;;;;;;;11.65;8.32;;;;;;;11.91;61.09;102340.47;5108910;27;20023;-63
2022/05/01 08:53:58;;;;;;;10.93;6.97;;;;;;;12.00;58.80;102330.03;5124004;27;20441;-62
2022/05/01 08:56:25;;;;;;;11.18;6.75;;;;;;;12.19;56.19;102323.09;5129990;27;20353;-63
2022/05/01 08:58:51;;;;;;;10.93;7.57;;;;;;;12.43;56.41;102325.81;5101123;27;20045;-63
2022/05/01 09:01:17;;;;;;;12.18;7.43;;;;;;;12.70;56.13;102322.34;5132501;27;20023;-63
2022/05/01 09:03:46;;;;;;;9.27;6.32;;;;;;;12.82;55.23;102322.34;5124396;27;20062;-63
2022/05/01 09:06:12;;;;;;;11.20;5.90;;;;;;;12.73;52.24;102330.25;5124712;27;20043;-61
2022/05/01 09:08:39;;;;;;;8.68;6.20;;;;;;;12.77;52.37;102325.88;5111840;28;20128;-63
2022/05/01 09:13:49;;;;;;;8.90;6.43;;;;;;;13.22;51.62;102325.03;5127351;27;20378;-64
2022/05/01 09:16:14;;;;;;;10.00;6.57;;;;;;;13.05;50.90;102308.38;5128446;27;20040;-65
2022/05/01 09:18:44;;;;;;;9.73;7.03;;;;;;;13.07;51.74;102332.91;5120211;27;20408;-63
2022/05/01 09:21:11;;;;;;;12.23;7.57;;;;;;;13.14;50.92;102325.03;5126167;27;20450;-63
2022/05/01 09:23:47;;;;;;;9.00;6.70;;;;;;;13.11;51.61;102329.41;5120101;27;20073;-64
2022/05/01 09:26:14;;;;;;;8.93;6.60;;;;;;;13.18;49.62;102326.78;5123691;27;20058;-63
2022/05/01 09:28:50;;;;;;;9.35;7.10;;;;;;;13.20;51.54;102326.78;5132031;27;20058;-63
2022/05/01 09:31:18;;;;;;;8.80;7.28;;;;;;;13.61;50.05;102312.72;5103690;27;20023;-60
2022/05/01 09:33:43;;;;;;;9.25;6.85;;;;;;;13.87;49.44;102324.03;5115774;27;20047;-64
2022/05/01 09:36:30;;;;;;;9.88;7.03;;;;;;;14.25;49.09;102321.25;5107114;27;20040;-65
2022/05/01 09:39:04;;;;;;;8.75;6.75;;;;;;;14.72;48.50;102315.72;5109284;27;20044;-61
2022/05/01 09:41:31;;;;;;;9.00;7.10;;;;;;;14.81;46.82;102318.28;5107289;28;20338;-63
2022/05/01 09:43:56;;;;;;;8.38;6.70;;;;;;;15.00;46.12;102324.31;5124714;27;20385;-63
2022/05/01 09:46:23;;;;;;;9.15;6.32;;;;;;;15.17;45.42;102324.16;5128593;27;20035;-64
2022/05/01 09:48:59;;;;;;;9.10;7.15;;;;;;;15.59;46.66;102320.25;5115213;27;20043;-63
2022/05/01 09:51:25;;;;;;;9.82;6.55;;;;;;;16.04;43.58;102310.94;5130525;27;20023;-63
2022/05/01 09:53:51;;;;;;;9.55;6.65;;;;;;;16.13;41.41;102307.31;5114914;28;20039;-62
2022/05/01 09:56:16;;;;;;;12.10;6.72;;;;;;;16.04;42.79;102315.34;5115612;28;20035;-62
2022/05/01 09:58:43;;;;;;;10.00;6.60;;;;;;;16.08;42.43;102309.16;5115716;28;20086;-62
2022/05/01 10:01:11;;;;;;;8.15;6.78;;;;;;;15.98;41.83;102313.66;5115439;28;20065;-62
2022/05/01 10:03:39;;;;;;;10.57;6.72;;;;;;;15.81;41.99;102308.56;5115343;28;20031;-61
2022/05/01 10:06:07;;;;;;;9.32;6.85;;;;;;;15.46;41.91;102310.69;5115417;28;20115;-62
2022/05/01 10:08:36;;;;;;;10.13;7.45;;;;;;;15.22;42.48;102320.63;5111545;28;20046;-62
2022/05/01 10:11:02;;;;;;;8.50;7.05;;;;;;;14.90;43.57;102320.84;5115275;28;20042;-63
2022/05/01 10:13:28;;;;;;;8.35;6.88;;;;;;;14.73;44.53;102317.47;5115719;28;20027;-64
2022/05/01 10:15:54;;;;;;;9.43;7.28;;;;;;;14.58;44.00;102310.53;5115129;28;20100;-61
2022/05/01 10:18:24;;;;;;;8.40;6.85;;;;;;;14.66;45.26;102312.25;5114680;28;20031;-61
2022/05/01 10:20:49;;;;;;;9.55;6.97;;;;;;;14.70;44.60;102314.88;5115197;28;20051;-61
2022/05/01 10:23:16;;;;;;;7.72;6.43;;;;;;;14.83;44.78;102308.63;5111823;28;20031;-63
2022/05/01 10:25:47;;;;;;;9.30;6.85;;;;;;;14.96;43.90;102307.63;5115093;28;20120;-62
2022/05/01 10:28:52;;;;;;;8.10;6.28;;;;;;;15.07;45.95;102299.63;5115292;28;20030;-63
2022/05/01 10:35:08;;;;;;;9.75;6.95;;;;;;;15.24;44.21;102304.75;5115424;28;20089;-63
2022/05/01 10:38:05;;;;;;;9.85;7.28;;;;;;;15.18;44.36;102296.91;5115002;28;20023;-62
2022/05/01 10:40:39;;;;;;;9.80;7.07;;;;;;;15.01;43.49;102301.47;5115281;28;20445;-61
2022/05/01 10:43:24;;;;;;;9.77;7.00;;;;;;;15.11;44.27;102295.19;5114914;28;20050;-63
2022/05/01 10:45:51;;;;;;;9.80;7.05;;;;;;;14.95;42.05;102300.63;5115270;28;20027;-61
2022/05/01 10:48:28;;;;;;;11.07;7.30;;;;;;;14.84;43.53;102285.78;5114946;28;20032;-62
2022/05/01 10:50:54;;;;;;;8.82;7.50;;;;;;;14.75;42.77;102286.72;5115259;28;20390;-62
2022/05/01 10:53:20;;;;;;;11.80;7.47;;;;;;;14.72;42.82;102288.53;5115207;28;20032;-62
2022/05/01 10:55:52;;;;;;;11.23;6.90;;;;;;;14.79;44.25;102287.56;5114825;28;20023;-62
2022/05/01 10:58:21;;;;;;;12.18;7.22;;;;;;;14.82;43.27;102287.56;5115173;28;20093;-61
2022/05/01 11:00:48;;;;;;;10.18;7.80;;;;;;;14.71;42.41;102278.88;5115027;28;20027;-61
2022/05/01 11:03:28;;;;;;;10.40;7.65;;;;;;;14.82;43.73;102269.97;5115026;28;20035;-62
2022/05/01 11:05:59;;;;;;;8.20;6.80;;;;;;;15.06;43.76;102268.03;5115033;28;20035;-63
2022/05/01 11:08:27;;;;;;;11.23;7.68;;;;;;;15.05;42.68;102277.69;5115069;28;20035;-61
2022/05/01 11:10:55;;;;;;;11.38;7.43;;;;;;;14.95;42.15;102266.34;5115121;28;20102;-61
2022/05/01 11:13:24;;;;;;;11.50;7.88;;;;;;;14.98;42.35;102262.81;5115056;28;20035;-61
2022/05/01 11:15:51;;;;;;;9.93;7.38;;;;;;;15.19;43.49;102261.75;5114989;28;20024;-61
2022/05/01 11:18:27;;;;;;;9.45;6.93;;;;;;;15.38;43.48;102260.66;5114877;28;20024;-62
2022/05/01 11:20:54;;;;;;;9.75;7.18;;;;;;;15.36;41.88;102251.00;5116401;28;20035;-62
2022/05/01 11:23:31;;;;;;;11.25;7.50;;;;;;;15.36;42.89;102248.38;5118441;28;20485;-63
2022/05/01 11:26:08;;;;;;;9.10;7.35;;;;;;;15.55;42.70;102244.66;5118459;28;20466;-63
2022/05/01 11:28:48;;;;;;;7.63;6.80;;;;;;;15.60;42.15;102230.53;5118542;28;20061;-63
2022/05/01 11:31:38;;;;;;;11.13;7.68;;;;;;;15.64;42.05;102247.19;5118335;28;20024;-64
2022/05/01 11:34:24;;;;;;;9.88;7.18;;;;;;;15.72;42.22;102240.06;5118586;28;20438;-63
2022/05/01 11:36:54;;;;;;;11.45;7.32;;;;;;;15.65;39.83;102233.13;5118026;28;20066;-64
2022/05/01 11:39:22;;;;;;;10.90;7.72;;;;;;;15.74;41.06;102229.50;5117829;28;20026;-63
2022/05/01 11:42:02;;;;;;;9.02;7.60;;;;;;;15.78;40.32;102244.38;5117622;28;20024;-63
2022/05/01 11:44:28;;;;;;;9.10;7.57;;;;;;;15.86;40.26;102231.97;5118038;28;20032;-64
2022/05/01 11:46:57;;;;;;;11.15;8.15;;;;;;;15.60;40.05;102219.97;5105893;28;20483;-62